Time;durP1;ratioP1;P1;durP2;ratioP2;P2;SDS_P1;SDS_P2;PMS_P1;PMS_P2;Temp;Humidity;BMP_temperature;BMP_pressure;BME280_temperature;BME280_humidity;BME280_pressure;Samples;Min_cycle;Max_cycle;Signal;HPM_P1;HPM_P2
2022/06/17 00:01:31;;;;;;;9.60;4.50;;;;;;;16.80;63.70;101094.59;107558;1247;60244;-77
2022/06/17 00:03:59;;;;;;;9.40;4.20;;;;;;;16.70;64.05;101092.39;107458;1251;61253;-77
2022/06/17 00:06:50;;;;;;;8.90;4.30;;;;;;;16.60;64.51;101085.15;107502;1248;74885;-78
2022/06/17 00:09:22;;;;;;;12.90;4.60;;;;;;;16.53;64.92;101090.37;107674;1247;73106;-77
2022/06/17 00:11:52;;;;;;;7.70;4.50;;;;;;;16.44;64.06;101085.02;107452;1250;69136;-77
2022/06/17 00:14:26;;;;;;;5.00;4.10;;;;;;;16.37;64.88;101087.30;107388;1251;71244;-78
2022/06/17 00:16:55;;;;;;;7.60;4.20;;;;;;;16.28;65.57;101082.30;107359;1250;61499;-77
2022/06/17 00:19:24;;;;;;;8.40;4.40;;;;;;;16.22;65.81;101079.72;107223;1251;59669;-77
2022/06/17 00:21:54;;;;;;;5.40;4.20;;;;;;;16.16;65.67;101082.13;107417;1247;73469;-78
2022/06/17 00:24:30;;;;;;;9.80;4.30;;;;;;;16.12;66.00;101083.85;107280;1248;70667;-81
2022/06/17 00:26:59;;;;;;;6.10;4.20;;;;;;;16.10;65.80;101081.83;107491;1247;70201;-77
2022/06/17 00:29:30;;;;;;;10.40;4.30;;;;;;;16.08;65.13;101077.80;107283;1250;73684;-79
2022/06/17 00:31:59;;;;;;;5.80;4.10;;;;;;;16.04;65.04;101078.61;107285;1248;60962;-80
2022/06/17 00:34:28;;;;;;;6.30;4.00;;;;;;;15.97;65.64;101071.73;107356;1247;59496;-79
2022/06/17 00:37:01;;;;;;;6.10;3.80;;;;;;;15.93;65.77;101069.64;107367;1247;72463;-78
2022/06/17 00:39:32;;;;;;;;;;;;;;;15.93;65.56;101069.15;107413;1250;70491;-77
2022/06/17 00:42:10;;;;;;;7.00;4.10;;;;;;;15.93;64.88;101066.33;107256;1250;68777;-77
2022/06/17 00:45:02;;;;;;;7.90;3.70;;;;;;;15.92;65.07;101066.35;107513;1248;71210;-78
2022/06/17 00:47:59;;;;;;;4.80;3.50;;;;;;;15.90;65.33;101064.80;107220;1251;61398;-77
2022/06/17 00:50:37;;;;;;;7.80;4.10;;;;;;;15.91;65.26;101064.69;107219;1251;62236;-77
2022/06/17 00:53:31;;;;;;;7.00;4.30;;;;;;;15.98;65.27;101064.66;107468;1248;73041;-77
2022/06/17 00:56:17;;;;;;;6.50;4.00;;;;;;;15.98;65.13;101061.31;107291;1249;71265;-77
2022/06/17 00:59:08;;;;;;;6.20;3.90;;;;;;;15.94;65.32;101059.21;107119;1251;69745;-77
2022/06/17 01:02:04;;;;;;;8.00;3.80;;;;;;;15.88;65.34;101054.59;107261;1248;72589;-79
2022/06/17 01:04:45;;;;;;;8.50;4.50;;;;;;;15.82;65.51;101052.15;107485;1248;60327;-79
2022/06/17 01:07:26;;;;;;;7.00;4.30;;;;;;;15.80;65.57;101051.09;107247;1250;61279;-79
2022/06/17 01:10:02;;;;;;;6.30;3.60;;;;;;;15.79;65.29;101049.48;107283;1247;74096;-78
2022/06/17 01:12:39;;;;;;;6.90;3.90;;;;;;;15.77;64.98;101047.30;107319;1248;71537;-78
2022/06/17 01:15:11;;;;;;;8.00;3.80;;;;;;;15.79;65.19;101048.37;107249;1248;70525;-79
2022/06/17 01:17:41;;;;;;;8.30;3.90;;;;;;;15.77;64.12;101055.61;107133;1248;74514;-84
2022/06/17 01:20:13;;;;;;;8.50;4.30;;;;;;;15.77;64.23;101057.88;107153;1250;61806;-81
2022/06/17 01:22:51;;;;;;;7.40;4.10;;;;;;;15.79;65.23;101060.71;107174;1251;59502;-76
2022/06/17 01:25:28;;;;;;;8.70;3.70;;;;;;;15.81;65.55;101063.70;107339;1251;72494;-79
2022/06/17 01:28:01;;;;;;;4.60;3.70;;;;;;;15.82;65.55;101060.05;107174;1250;71126;-78
2022/06/17 01:30:44;;;;;;;6.00;3.70;;;;;;;15.87;65.56;101058.34;107123;1247;71115;-77
2022/06/17 01:33:22;;;;;;;9.10;4.60;;;;;;;15.95;65.32;101053.30;107215;1251;72528;-82
2022/06/17 01:36:15;;;;;;;7.60;4.10;;;;;;;15.99;64.83;101050.50;107281;1248;61262;-79
2022/06/17 01:38:49;;;;;;;6.80;4.30;;;;;;;15.89;64.67;101049.08;107211;1250;59772;-80
2022/06/17 01:41:23;;;;;;;7.60;4.00;;;;;;;15.78;65.27;101043.77;107530;1247;74466;-79
2022/06/17 01:43:57;;;;;;;8.10;4.30;;;;;;;15.70;65.24;101045.33;107179;1248;72512;-80
2022/06/17 01:46:36;;;;;;;6.20;4.30;;;;;;;15.59;66.33;101045.55;107447;1247;71013;-78
2022/06/17 01:49:31;;;;;;;6.70;4.20;;;;;;;15.51;65.93;101040.98;107207;1250;71580;-77
2022/06/17 01:52:12;;;;;;;6.00;3.90;;;;;;;15.41;67.04;101037.50;107131;1250;60660;-80
2022/06/17 01:54:58;;;;;;;9.00;4.20;;;;;;;15.31;66.50;101037.52;107100;1248;61400;-80
2022/06/17 01:57:38;;;;;;;9.10;4.50;;;;;;;15.20;68.09;101036.05;107195;1250;72235;-78
2022/06/17 02:00:19;;;;;;;6.80;4.00;;;;;;;15.15;68.45;101034.55;107378;1247;71518;-77
2022/06/17 02:02:56;;;;;;;5.90;4.20;;;;;;;15.08;67.82;101033.50;107136;1251;68703;-77
2022/06/17 02:05:28;;;;;;;5.60;3.90;;;;;;;15.00;67.11;101034.71;107390;1247;72205;-80
2022/06/17 02:08:03;;;;;;;5.00;3.70;;;;;;;14.92;67.33;101032.67;107285;1247;63629;-82
2022/06/17 02:10:41;;;;;;;9.10;5.00;;;;;;;14.87;67.94;101025.69;107260;1248;62137;-79
2022/06/17 02:13:13;;;;;;;8.80;5.90;;;;;;;14.90;68.65;101031.02;107266;1248;74906;-81
2022/06/17 02:16:01;;;;;;;10.30;5.80;;;;;;;14.79;69.09;101031.80;107180;1251;72061;-80
2022/06/17 02:19:26;;;;;;;9.30;5.60;;;;;;;14.60;69.80;101034.48;107039;1251;69796;-80
2022/06/17 02:22:06;;;;;;;11.50;6.50;;;;;;;14.45;70.32;101033.98;107048;1248;74441;-77
2022/06/17 02:24:36;;;;;;;21.40;7.30;;;;;;;14.31;70.38;101034.05;107404;1247;62491;-79
2022/06/17 02:27:09;;;;;;;13.30;6.40;;;;;;;14.33;71.00;101035.11;107224;1247;61312;-79
2022/06/17 02:29:41;;;;;;;9.80;6.50;;;;;;;14.59;70.83;101033.88;107241;1251;72188;-78
2022/06/17 02:32:11;;;;;;;9.80;5.80;;;;;;;14.81;70.05;101035.27;107232;1248;72288;-78
2022/06/17 02:34:56;;;;;;;10.30;5.40;;;;;;;14.85;69.89;101033.05;107142;1248;71028;-77
2022/06/17 02:37:27;;;;;;;10.10;5.70;;;;;;;14.96;69.82;101035.60;107307;1250;71427;-80
2022/06/17 02:40:00;;;;;;;15.70;7.00;;;;;;;14.97;68.90;101032.70;107517;1250;62638;-79
2022/06/17 02:42:36;;;;;;;11.70;6.30;;;;;;;14.98;68.77;101033.90;107355;1250;59325;-79
2022/06/17 02:45:20;;;;;;;11.50;6.80;;;;;;;14.88;68.85;101040.02;107537;1247;74437;-78
2022/06/17 02:47:50;;;;;;;13.70;7.20;;;;;;;14.71;69.29;101037.58;107869;1247;71932;-79
2022/06/17 02:50:26;;;;;;;12.00;7.50;;;;;;;14.57;69.86;101038.02;108610;1250;69606;-76
2022/06/17 02:52:59;;;;;;;13.10;7.60;;;;;;;14.46;70.37;101037.93;108290;1250;71703;-76
2022/06/17 02:55:39;;;;;;;15.00;7.60;;;;;;;14.37;70.43;101035.30;107438;1248;62188;-79
2022/06/17 02:58:24;;;;;;;16.40;8.40;;;;;;;14.33;70.68;101040.51;107564;1247;60363;-78
2022/06/17 03:00:54;;;;;;;13.30;7.60;;;;;;;14.34;71.06;101034.52;107533;1247;74189;-81
2022/06/17 03:03:24;;;;;;;15.20;8.00;;;;;;;14.51;71.20;101034.31;107401;1247;72177;-79
2022/06/17 03:05:54;;;;;;;8.80;5.70;;;;;;;14.68;71.17;101035.19;107284;1247;70536;-78
2022/06/17 03:08:29;;;;;;;11.60;5.90;;;;;;;14.74;71.36;101037.35;107211;1251;71574;-80
2022/06/17 03:11:02;;;;;;;11.50;6.30;;;;;;;14.85;70.98;101036.38;107308;1250;60548;-83
2022/06/17 03:13:38;;;;;;;9.50;6.30;;;;;;;14.93;70.45;101033.63;107072;1249;60836;-79
2022/06/17 03:16:13;;;;;;;22.80;7.40;;;;;;;15.00;70.34;101037.90;107045;1250;72286;-79
2022/06/17 03:18:46;;;;;;;13.90;5.90;;;;;;;15.14;69.79;101040.39;107089;1250;69639;-79
2022/06/17 03:21:23;;;;;;;13.70;6.30;;;;;;;15.31;69.01;101038.57;107143;1248;69802;-79
2022/06/17 03:24:11;;;;;;;10.70;5.80;;;;;;;15.47;68.52;101037.70;107196;1250;72355;-79
2022/06/17 03:27:10;;;;;;;8.40;5.00;;;;;;;15.60;68.46;101039.30;107127;1248;59581;-80
2022/06/17 03:29:44;;;;;;;17.80;9.80;;;;;;;15.70;68.53;101041.02;107004;1247;60560;-77
2022/06/17 03:32:24;;;;;;;9.10;5.00;;;;;;;15.74;68.47;101038.00;107065;1248;74662;-82
2022/06/17 03:34:55;;;;;;;14.20;5.80;;;;;;;15.82;68.40;101035.45;107290;1248;72276;-79
2022/06/17 03:37:35;;;;;;;9.60;5.80;;;;;;;15.92;68.42;101037.55;107237;1248;71174;-78
2022/06/17 03:40:32;;;;;;;15.10;6.40;;;;;;;16.02;67.54;101036.16;107232;1250;74607;-82
2022/06/17 03:43:11;;;;;;;15.20;6.20;;;;;;;16.19;66.85;101029.86;107475;1247;59575;-80
2022/06/17 03:45:47;;;;;;;12.90;6.70;;;;;;;16.36;66.28;101027.61;107370;1247;60440;-78
2022/06/17 03:48:39;;;;;;;13.30;6.00;;;;;;;16.44;65.83;101027.19;107351;1247;72979;-81
2022/06/17 03:51:19;;;;;;;12.50;6.70;;;;;;;16.56;65.42;101025.23;107395;1248;70341;-79
2022/06/17 03:53:50;;;;;;;10.10;6.20;;;;;;;16.66;65.08;101027.13;107348;1250;68728;-82
2022/06/17 03:56:33;;;;;;;11.80;6.50;;;;;;;16.76;64.60;101020.46;107132;1247;72885;-79
2022/06/17 03:59:11;;;;;;;13.50;6.30;;;;;;;16.90;63.80;101018.77;107509;1247;60986;-82
2022/06/17 04:01:45;;;;;;;10.30;7.20;;;;;;;16.93;63.93;101017.95;107352;1247;59850;-82
2022/06/17 04:04:26;;;;;;;11.70;6.80;;;;;;;16.99;63.85;101013.81;107343;1250;75268;-77
2022/06/17 04:06:58;;;;;;;9.80;6.60;;;;;;;17.05;63.70;101016.45;107457;1249;71221;-77
2022/06/17 04:09:37;;;;;;;15.00;7.50;;;;;;;17.15;63.47;101018.31;107252;1250;67984;-79
2022/06/17 04:12:12;;;;;;;13.70;7.50;;;;;;;17.24;63.18;101020.66;107185;1248;74515;-79
2022/06/17 04:15:41;;;;;;;11.70;6.50;;;;;;;17.36;62.64;101015.37;107472;1247;59621;-80
2022/06/17 04:18:10;;;;;;;13.20;7.40;;;;;;;17.54;61.82;101011.42;107466;1249;60367;-81
2022/06/17 04:20:46;;;;;;;11.30;7.10;;;;;;;17.68;61.41;101013.33;107237;1251;72954;-80
2022/06/17 04:23:22;;;;;;;18.30;7.40;;;;;;;17.82;61.15;101009.08;106977;1250;71490;-79
2022/06/17 04:26:06;;;;;;;18.70;7.50;;;;;;;17.95;60.93;101008.14;107323;1251;59759;-80
2022/06/17 04:28:54;;;;;;;11.40;7.20;;;;;;;18.11;60.39;101010.01;107339;1251;73941;-81
2022/06/17 04:31:29;;;;;;;15.30;7.50;;;;;;;18.25;59.50;101008.57;107271;1250;59559;-82
2022/06/17 04:34:18;;;;;;;16.50;8.10;;;;;;;18.37;58.80;101006.88;107407;1249;60605;-80
2022/06/17 04:37:04;;;;;;;16.00;7.30;;;;;;;18.48;58.41;101006.48;107454;1249;62912;-82
2022/06/17 04:39:46;;;;;;;16.80;7.50;;;;;;;18.62;58.76;101000.52;107332;1251;71418;-81
2022/06/17 04:42:42;;;;;;;18.00;7.10;;;;;;;18.75;57.93;101001.48;107300;1250;69927;-82
2022/06/17 04:45:24;;;;;;;15.90;6.80;;;;;;;18.87;57.96;101000.73;107277;1249;73624;-78
2022/06/17 04:47:58;;;;;;;12.10;6.60;;;;;;;19.02;57.21;101004.14;107244;1250;59554;-78
2022/06/17 04:50:31;;;;;;;11.00;6.60;;;;;;;19.15;56.07;101002.48;107273;1249;61381;-81
2022/06/17 04:53:00;;;;;;;12.50;7.00;;;;;;;19.25;56.09;100998.34;107445;1249;74922;-79
2022/06/17 04:56:41;;;;;;;10.30;6.10;;;;;;;19.41;55.74;100992.14;107452;1250;71870;-81
2022/06/17 04:59:40;;;;;;;10.90;6.00;;;;;;;19.53;55.08;100993.30;107278;1251;60788;-81
2022/06/17 05:02:18;;;;;;;8.30;5.20;;;;;;;19.64;54.37;100992.22;107544;1250;74357;-82
2022/06/17 05:05:16;;;;;;;10.70;5.80;;;;;;;19.74;54.36;100996.45;107537;1249;61047;-78
2022/06/17 05:07:49;;;;;;;9.40;5.40;;;;;;;19.85;54.34;101000.07;107306;1251;61879;-81
2022/06/17 05:10:37;;;;;;;12.80;6.00;;;;;;;19.87;53.70;100999.88;107434;1249;63608;-81
2022/06/17 05:13:24;;;;;;;7.40;5.20;;;;;;;19.86;53.98;101006.09;107373;1250;70703;-83
2022/06/17 05:15:57;;;;;;;13.00;6.30;;;;;;;20.03;53.88;100999.52;107464;1249;69690;-81
2022/06/17 05:18:26;;;;;;;14.90;7.50;;;;;;;20.17;53.59;100996.44;107466;1247;74421;-82
2022/06/17 05:21:24;;;;;;;10.20;5.10;;;;;;;20.30;53.30;100997.65;107426;1247;61743;-82
2022/06/17 05:24:15;;;;;;;14.60;5.80;;;;;;;20.41;53.17;100992.38;107341;1248;61558;-80
2022/06/17 05:26:45;;;;;;;7.30;4.90;;;;;;;20.52;52.77;100991.86;107337;1248;73127;-84
2022/06/17 05:29:14;;;;;;;9.10;4.70;;;;;;;20.58;52.06;100991.05;107411;1250;61280;-83
2022/06/17 05:31:54;;;;;;;9.70;5.30;;;;;;;20.69;52.23;100990.69;107522;1247;59183;-82
2022/06/17 05:34:27;;;;;;;8.10;4.90;;;;;;;20.83;51.91;100991.65;107176;1251;74918;-83
2022/06/17 05:36:57;;;;;;;10.60;4.90;;;;;;;20.88;51.64;100992.80;107579;1247;59207;-83
2022/06/17 05:39:33;;;;;;;9.20;4.60;;;;;;;21.00;51.18;100997.16;107444;1247;60305;-83
2022/06/17 05:42:05;;;;;;;7.80;4.80;;;;;;;21.06;50.97;100992.92;107288;1248;65173;-82
2022/06/17 05:44:34;;;;;;;8.30;5.00;;;;;;;21.13;51.02;100994.45;107350;1248;72391;-82
2022/06/17 05:47:41;;;;;;;9.90;5.30;;;;;;;21.23;50.84;100992.45;107350;1247;59584;-81
2022/06/17 05:50:56;;;;;;;10.10;5.00;;;;;;;21.35;50.10;100985.58;107352;1250;73150;-82
2022/06/17 05:53:53;;;;;;;12.90;4.80;;;;;;;21.34;50.33;100980.92;107514;1247;61425;-80
2022/06/17 05:56:29;;;;;;;15.00;4.60;;;;;;;21.46;50.10;100983.52;107436;1248;60996;-82
2022/06/17 05:58:57;;;;;;;10.50;4.50;;;;;;;21.54;49.05;100980.24;107468;1247;75220;-81
2022/06/17 06:01:27;;;;;;;7.10;4.10;;;;;;;21.62;48.86;100980.23;107313;1251;73673;-82
2022/06/17 06:03:57;;;;;;;7.10;3.50;;;;;;;21.79;47.20;100981.61;107423;1247;70860;-84
2022/06/17 06:06:26;;;;;;;6.90;4.00;;;;;;;21.85;45.82;100980.27;107584;1250;64017;-82
2022/06/17 06:08:57;;;;;;;5.60;4.00;;;;;;;21.90;45.77;100980.99;107979;1247;62835;-81
2022/06/17 06:11:28;;;;;;;8.40;3.90;;;;;;;21.93;45.66;100972.02;108010;1247;57882;-83
2022/06/17 06:13:57;;;;;;;9.50;3.50;;;;;;;22.02;45.69;100968.84;107694;1249;62922;-80
2022/06/17 06:16:26;;;;;;;8.60;4.00;;;;;;;22.16;45.19;100974.62;107616;1248;60885;-82
2022/06/17 06:19:00;;;;;;;8.80;4.20;;;;;;;22.28;44.80;100976.77;107398;1249;60066;-83
2022/06/17 06:21:29;;;;;;;9.70;4.30;;;;;;;22.31;44.33;100977.84;107457;1249;63318;-79
2022/06/17 06:23:58;;;;;;;7.40;3.50;;;;;;;22.52;44.45;100976.03;107505;1249;61396;-81
2022/06/17 06:26:34;;;;;;;11.60;4.50;;;;;;;22.62;43.80;100977.33;107528;1249;61691;-80
2022/06/17 06:29:18;;;;;;;10.40;4.10;;;;;;;22.72;43.37;100976.88;107237;1250;74954;-79
2022/06/17 06:31:48;;;;;;;8.10;3.50;;;;;;;22.90;43.08;100970.52;107242;1250;62389;-80
2022/06/17 06:34:23;;;;;;;7.10;3.30;;;;;;;23.08;43.20;100973.61;107253;1249;59291;-81
2022/06/17 06:36:52;;;;;;;8.30;3.10;;;;;;;23.28;41.45;100967.32;107292;1250;74422;-81
2022/06/17 06:39:21;;;;;;;11.60;3.50;;;;;;;23.30;41.68;100963.27;107273;1250;60795;-82
2022/06/17 06:41:52;;;;;;;7.70;3.40;;;;;;;23.49;40.76;100960.95;107307;1250;58926;-80
2022/06/17 06:44:21;;;;;;;7.90;3.30;;;;;;;23.55;40.70;100958.44;107123;1251;74415;-82
2022/06/17 06:47:03;;;;;;;6.10;3.40;;;;;;;23.68;40.65;100956.79;107440;1250;71657;-84
2022/06/17 06:49:47;;;;;;;5.10;3.30;;;;;;;23.85;40.47;100960.31;107148;1251;59571;-83
2022/06/17 06:52:16;;;;;;;4.40;3.00;;;;;;;23.93;40.19;100956.23;107244;1249;63230;-79
2022/06/17 06:54:46;;;;;;;5.90;3.10;;;;;;;23.98;39.31;100948.25;107368;1250;59614;-84
2022/06/17 06:57:16;;;;;;;7.20;3.20;;;;;;;24.18;39.27;100946.27;107629;1249;61388;-84
2022/06/17 07:00:06;;;;;;;5.40;3.10;;;;;;;24.42;38.63;100947.51;107433;1250;74939;-81
2022/06/17 07:02:36;;;;;;;6.20;3.30;;;;;;;24.29;37.52;100943.42;107334;1249;72463;-81
2022/06/17 07:05:05;;;;;;;10.00;3.70;;;;;;;24.52;38.01;100940.96;107288;1249;70979;-83
2022/06/17 07:07:40;;;;;;;7.00;4.60;;;;;;;24.86;37.85;100938.63;107252;1249;73860;-80
2022/06/17 07:10:17;;;;;;;11.10;4.70;;;;;;;25.08;37.08;100936.68;107262;1251;59170;-83
2022/06/17 07:12:47;;;;;;;10.20;3.40;;;;;;;25.30;37.22;100936.34;107384;1249;57962;-84
2022/06/17 07:15:17;;;;;;;7.30;3.30;;;;;;;25.41;36.42;100936.86;107535;1248;63807;-84
2022/06/17 07:17:58;;;;;;;9.50;3.60;;;;;;;25.60;34.96;100939.49;107196;1249;71471;-84
2022/06/17 07:20:36;;;;;;;8.10;3.50;;;;;;;25.35;35.80;100940.47;107668;1249;59981;-83
2022/06/17 07:23:07;;;;;;;6.10;2.90;;;;;;;25.22;35.78;100943.61;107861;1248;63319;-83
2022/06/17 07:25:37;;;;;;;6.30;3.10;;;;;;;25.17;35.49;100942.32;107586;1249;58908;-86
2022/06/17 07:28:08;;;;;;;6.50;3.20;;;;;;;25.07;36.11;100941.58;107486;1250;59532;-85
2022/06/17 07:30:37;;;;;;;8.30;3.90;;;;;;;25.11;35.95;100940.08;107636;1249;74437;-83
2022/06/17 07:33:06;;;;;;;6.30;3.50;;;;;;;25.18;36.12;100937.70;107668;1249;60953;-80
2022/06/17 07:35:35;;;;;;;8.90;3.80;;;;;;;25.36;36.08;100934.46;107546;1249;60014;-77
2022/06/17 07:40:51;;;;;;;8.20;3.60;;;;;;;25.77;35.56;100932.77;107446;1249;61409;-84
2022/06/17 07:43:20;;;;;;;6.40;3.50;;;;;;;25.81;35.20;100929.11;107422;1249;58160;-82
2022/06/17 07:45:49;;;;;;;6.40;3.60;;;;;;;25.47;35.90;100927.28;107258;1249;74489;-81
2022/06/17 07:48:19;;;;;;;9.50;3.80;;;;;;;25.71;35.60;100926.77;107503;1250;62188;-83
2022/06/17 07:50:48;;;;;;;6.40;3.40;;;;;;;25.97;35.19;100921.13;107285;1249;60030;-81
2022/06/17 07:53:17;;;;;;;8.90;3.40;;;;;;;26.09;35.11;100922.64;107533;1249;62408;-82
2022/06/17 07:55:46;;;;;;;7.10;3.40;;;;;;;26.26;34.63;100924.30;107345;1249;59502;-83
2022/06/17 07:58:15;;;;;;;6.10;3.60;;;;;;;26.27;34.38;100922.58;107415;1249;61293;-84
2022/06/17 08:00:45;;;;;;;8.10;3.90;;;;;;;26.22;34.67;100926.00;107384;1249;66104;-85
2022/06/17 08:03:17;;;;;;;6.10;3.60;;;;;;;26.24;34.55;100921.81;107462;1249;61984;-84
2022/06/17 08:05:53;;;;;;;7.90;3.60;;;;;;;26.43;34.82;100916.50;107375;1250;59527;-86
2022/06/17 08:08:24;;;;;;;14.00;6.40;;;;;;;26.58;34.45;100913.38;107398;1251;63316;-83
2022/06/17 08:10:57;;;;;;;7.70;3.30;;;;;;;26.54;33.91;100912.20;107514;1250;59515;-82
2022/06/17 08:13:27;;;;;;;7.40;3.80;;;;;;;26.78;34.10;100910.10;107385;1249;60393;-85
2022/06/17 08:15:59;;;;;;;8.10;3.70;;;;;;;27.07;33.88;100908.00;107329;1249;63926;-84
2022/06/17 08:18:28;;;;;;;6.90;3.80;;;;;;;27.31;33.32;100904.77;107328;1250;61546;-84
2022/06/17 08:20:57;;;;;;;8.10;4.50;;;;;;;27.45;32.81;100902.53;107384;1248;59564;-84
2022/06/17 08:23:26;;;;;;;7.10;3.90;;;;;;;27.58;33.09;100901.52;107360;1249;64352;-83
2022/06/17 08:25:57;;;;;;;7.70;4.40;;;;;;;27.51;33.27;100900.73;107601;1250;58771;-85
2022/06/17 08:28:29;;;;;;;7.40;4.00;;;;;;;27.53;33.36;100897.11;107434;1249;60921;-85
2022/06/17 08:30:58;;;;;;;8.10;4.00;;;;;;;27.58;32.98;100899.96;107365;1249;73986;-81
2022/06/17 08:33:31;;;;;;;9.50;4.10;;;;;;;27.48;32.55;100899.79;107179;1249;73560;-85
2022/06/17 08:36:19;;;;;;;8.00;3.80;;;;;;;27.53;32.64;100900.77;107508;1249;60696;-86
2022/06/17 08:38:59;;;;;;;8.80;3.80;;;;;;;27.63;32.59;100908.88;107522;1249;65154;-86
2022/06/17 08:41:33;;;;;;;8.40;4.00;;;;;;;27.85;32.15;100905.64;107525;1249;62104;-85
2022/06/17 08:44:42;;;;;;;10.30;4.20;;;;;;;27.81;31.81;100903.15;107549;1249;58314;-87
2022/06/17 08:47:36;;;;;;;8.80;3.60;;;;;;;27.91;32.17;100905.94;107860;1249;63123;-84
2022/06/17 08:50:26;;;;;;;6.00;3.70;;;;;;;28.09;32.09;100902.31;107844;1249;61736;-83
2022/06/17 08:53:22;;;;;;;4.30;2.90;;;;;;;28.14;31.84;100899.46;107754;1250;60294;-82
2022/06/17 08:56:13;;;;;;;5.10;3.50;;;;;;;28.31;30.48;100895.53;107704;1249;73460;-85
2022/06/17 08:59:00;;;;;;;7.20;3.70;;;;;;;28.32;30.20;100893.58;107660;1250;61947;-83
2022/06/17 09:01:46;;;;;;;8.20;3.90;;;;;;;28.05;30.80;100894.58;107669;1249;60932;-87
2022/06/17 09:04:36;;;;;;;5.40;3.40;;;;;;;28.00;31.33;100898.89;107345;1249;64324;-86
2022/06/17 09:07:29;;;;;;;9.60;3.40;;;;;;;28.35;31.00;100893.84;107636;1249;70849;-83
2022/06/17 09:09:57;;;;;;;6.80;3.20;;;;;;;28.67;30.74;100890.98;107459;1250;62082;-86
2022/06/17 09:12:53;;;;;;;5.30;3.60;;;;;;;29.03;29.54;100889.10;107468;1250;63609;-83
2022/06/17 09:15:35;;;;;;;7.90;3.40;;;;;;;28.71;29.77;100889.71;107611;1249;57946;-85
2022/06/17 09:18:12;;;;;;;4.60;3.10;;;;;;;28.44;30.00;100891.73;107298;1250;58924;-84
2022/06/17 09:20:45;;;;;;;4.80;3.20;;;;;;;28.07;30.43;100890.06;107462;1249;75039;-86
2022/06/17 09:23:23;;;;;;;4.30;3.00;;;;;;;28.63;29.81;100888.55;107693;1249;62112;-88
2022/06/17 09:25:56;;;;;;;4.20;3.00;;;;;;;28.92;29.42;100894.33;108001;1249;60318;-82
2022/06/17 09:28:57;;;;;;;5.00;3.30;;;;;;;29.07;29.32;100892.62;108287;1247;73946;-83
2022/06/17 09:31:41;;;;;;;6.60;3.10;;;;;;;29.11;28.86;100892.15;107884;1247;59829;-80
2022/06/17 09:34:44;;;;;;;6.60;2.80;;;;;;;29.38;27.99;100892.06;107726;1248;58390;-85
2022/06/17 09:37:31;;;;;;;;;;;;;;;29.13;28.58;100895.29;107812;1247;63750;-85
2022/06/17 09:40:15;;;;;;;5.80;2.60;;;;;;;29.12;28.30;100891.84;107816;1249;61757;-81
2022/06/17 09:43:06;;;;;;;9.20;3.10;;;;;;;28.92;28.98;100898.33;107921;1249;59267;-83
2022/06/17 09:45:53;;;;;;;8.30;3.10;;;;;;;28.68;29.37;100897.69;108002;1248;63754;-82
2022/06/17 09:48:40;;;;;;;7.00;2.70;;;;;;;28.42;28.93;100902.11;107773;1247;59144;-79
2022/06/17 09:51:30;;;;;;;6.90;3.10;;;;;;;28.27;28.46;100898.75;107589;1247;60753;-83
2022/06/17 09:54:13;;;;;;;5.40;2.80;;;;;;;28.06;29.24;100907.23;107614;1247;63819;-85
2022/06/17 09:57:01;;;;;;;6.90;3.00;;;;;;;28.32;28.92;100899.06;107489;1249;71767;-84
2022/06/17 09:59:37;;;;;;;8.40;2.70;;;;;;;28.16;29.36;100901.09;107483;1249;60233;-84
2022/06/17 10:02:22;;;;;;;5.00;2.70;;;;;;;28.13;28.92;100895.79;107521;1248;73889;-85
2022/06/17 10:04:52;;;;;;;4.20;2.70;;;;;;;28.03;28.83;100898.54;107519;1247;59706;-85
2022/06/17 10:07:34;;;;;;;8.80;2.70;;;;;;;27.92;29.26;100899.23;107632;1247;61349;-86
2022/06/17 10:10:36;;;;;;;4.30;2.70;;;;;;;27.94;30.30;100896.92;107867;1247;73792;-84
2022/06/17 10:13:11;;;;;;;4.80;3.00;;;;;;;28.13;30.16;100895.13;108053;1247;72726;-83
2022/06/17 10:19:50;;;;;;;6.40;3.60;;;;;;;28.16;32.13;100894.77;107731;1248;74706;-82
2022/06/17 10:22:55;;;;;;;5.30;3.30;;;;;;;28.09;32.51;100902.90;107789;1246;61193;-84
2022/06/17 10:26:04;;;;;;;7.20;4.00;;;;;;;27.94;33.16;100902.38;107780;1247;59450;-82
2022/06/17 10:28:46;;;;;;;8.50;4.50;;;;;;;28.05;33.26;100903.63;107481;1248;63009;-86
2022/06/17 10:31:38;;;;;;;10.00;3.90;;;;;;;28.09;32.98;100903.46;107746;1247;60872;-83
2022/06/17 10:34:27;;;;;;;6.70;3.80;;;;;;;28.02;33.22;100893.25;107672;1247;59109;-84
2022/06/17 10:37:00;;;;;;;7.90;4.20;;;;;;;28.33;33.04;100886.08;107446;1248;74014;-84
2022/06/17 10:39:32;;;;;;;9.10;3.60;;;;;;;28.26;31.62;100890.66;107743;1247;60926;-87
2022/06/17 10:42:07;;;;;;;5.30;3.80;;;;;;;28.02;32.00;100893.79;107623;1249;58718;-85
2022/06/17 10:44:37;;;;;;;8.40;3.90;;;;;;;28.25;32.35;100884.64;107777;1246;73784;-84
2022/06/17 10:47:17;;;;;;;6.40;3.70;;;;;;;28.65;31.48;100880.27;107409;1247;72699;-83
2022/06/17 10:49:54;;;;;;;6.60;3.80;;;;;;;28.90;30.59;100884.38;107741;1246;68704;-84
2022/06/17 10:52:42;;;;;;;6.30;4.00;;;;;;;29.15;30.62;100880.50;107800;1247;63193;-87
2022/06/17 10:55:30;;;;;;;8.60;3.30;;;;;;;29.43;30.17;100886.85;107693;1246;59705;-84
2022/06/17 10:58:10;;;;;;;7.20;3.40;;;;;;;29.48;29.72;100880.54;107802;1248;61745;-90
2022/06/17 11:01:04;;;;;;;7.80;3.40;;;;;;;29.88;29.31;100875.38;107898;1247;74345;-86
2022/06/17 11:03:48;;;;;;;5.80;3.00;;;;;;;30.16;29.46;100874.88;107532;1247;72521;-81
2022/06/17 11:06:32;;;;;;;4.40;3.30;;;;;;;29.80;30.59;100874.23;107508;1248;70869;-83
2022/06/17 11:09:03;;;;;;;6.30;3.20;;;;;;;29.70;30.51;100877.16;107727;1247;74567;-82
2022/06/17 11:12:24;;;;;;;7.30;3.40;;;;;;;29.64;30.12;100868.68;107766;1248;59614;-84
2022/06/17 11:15:05;;;;;;;5.50;2.90;;;;;;;30.14;29.42;100868.36;107422;1248;60758;-84
2022/06/17 11:17:44;;;;;;;4.80;3.00;;;;;;;30.29;28.10;100874.05;107417;1248;74398;-84
2022/06/17 11:20:16;;;;;;;4.50;2.80;;;;;;;30.03;27.48;100870.66;107490;1248;72585;-83
2022/06/17 11:23:29;;;;;;;4.50;3.10;;;;;;;30.50;27.51;100867.84;107695;1247;70035;-85
2022/06/17 11:26:38;;;;;;;3.40;2.60;;;;;;;30.69;26.98;100866.25;107441;1248;64314;-82
2022/06/17 11:29:36;;;;;;;7.10;2.70;;;;;;;30.39;27.67;100868.05;107014;1248;634244;-83
2022/06/17 11:32:32;;;;;;;6.20;2.90;;;;;;;30.34;28.25;100863.91;107594;1247;58087;-82
2022/06/17 11:35:29;;;;;;;7.80;3.20;;;;;;;30.57;28.52;100870.37;107689;1247;73549;-85
2022/06/17 11:38:01;;;;;;;8.60;3.50;;;;;;;30.31;28.98;100865.88;107379;1247;72623;-83
2022/06/17 11:40:32;;;;;;;;;;;;;;;29.84;30.05;100882.39;107412;1248;70982;-80
2022/06/17 11:43:12;;;;;;;9.60;4.80;;;;;;;29.56;30.32;100881.54;107594;1247;63670;-85
2022/06/17 11:45:44;;;;;;;5.00;3.20;;;;;;;29.57;30.98;100880.19;107470;1247;60781;-85
2022/06/17 11:48:22;;;;;;;5.60;3.50;;;;;;;29.46;31.72;100896.20;107658;1247;58356;-85
2022/06/17 11:51:17;;;;;;;10.20;4.10;;;;;;;29.69;30.98;100902.67;107606;1247;74452;-81
2022/06/17 11:53:46;;;;;;;7.10;3.90;;;;;;;29.37;30.73;100903.59;107583;1247;61237;-83
2022/06/17 11:56:37;;;;;;;4.30;3.00;;;;;;;28.89;30.69;100911.47;107657;1247;71810;-84
2022/06/17 11:59:10;;;;;;;9.20;3.90;;;;;;;28.38;31.34;100913.36;107666;1247;62976;-82
2022/06/17 12:01:47;;;;;;;8.00;4.10;;;;;;;28.04;31.77;100925.86;107656;1247;60561;-83
2022/06/17 12:05:07;;;;;;;8.50;4.50;;;;;;;27.74;33.09;100924.87;107647;1247;59619;-80
2022/06/17 12:07:44;;;;;;;8.30;4.70;;;;;;;27.12;35.51;100927.35;107322;1247;73734;-83
2022/06/17 12:10:25;;;;;;;6.90;4.20;;;;;;;27.08;35.59;100940.16;107570;1247;62509;-86
2022/06/17 12:13:01;;;;;;;10.90;4.40;;;;;;;26.70;36.30;100945.85;107619;1246;59846;-82
2022/06/17 12:16:02;;;;;;;11.50;4.00;;;;;;;26.35;37.29;100949.92;107395;1247;73675;-83
2022/06/17 12:18:36;;;;;;;7.80;4.10;;;;;;;26.38;36.68;100953.63;107342;1249;61036;-84